sensor_id;sensor_type;location;lat;lon;timestamp;P1;durP1;ratioP1;P2;durP2;ratioP2
75059;SDS011;63640;59.264;18.116;2023-01-05T00:01:30;4.75;;;1.30;;
75059;SDS011;63640;59.264;18.116;2023-01-05T00:03:55;6.22;;;1.88;;
75059;SDS011;63640;59.264;18.116;2023-01-05T00:06:21;3.33;;;1.30;;
75059;SDS011;63640;59.264;18.116;2023-01-05T00:08:46;3.85;;;1.67;;
75059;SDS011;63640;59.264;18.116;2023-01-05T00:11:23;4.78;;;1.13;;
75059;SDS011;63640;59.264;18.116;2023-01-05T00:14:12;4.97;;;1.80;;
75059;SDS011;63640;59.264;18.116;2023-01-05T00:19:41;4.72;;;1.88;;
75059;SDS011;63640;59.264;18.116;2023-01-05T00:22:25;6.97;;;1.45;;
75059;SDS011;63640;59.264;18.116;2023-01-05T00:24:56;3.90;;;1.15;;
75059;SDS011;63640;59.264;18.116;2023-01-05T00:27:25;5.68;;;1.52;;
75059;SDS011;63640;59.264;18.116;2023-01-05T00:29:51;6.45;;;1.63;;
75059;SDS011;63640;59.264;18.116;2023-01-05T00:32:17;4.57;;;1.52;;
75059;SDS011;63640;59.264;18.116;2023-01-05T00:34:42;6.28;;;2.60;;
75059;SDS011;63640;59.264;18.116;2023-01-05T00:37:08;4.25;;;1.30;;
75059;SDS011;63640;59.264;18.116;2023-01-05T00:39:33;7.75;;;2.70;;
75059;SDS011;63640;59.264;18.116;2023-01-05T00:41:59;5.55;;;2.15;;
75059;SDS011;63640;59.264;18.116;2023-01-05T00:44:25;7.07;;;2.08;;
75059;SDS011;63640;59.264;18.116;2023-01-05T00:46:50;5.25;;;2.13;;
75059;SDS011;63640;59.264;18.116;2023-01-05T00:49:16;5.85;;;1.58;;
75059;SDS011;63640;59.264;18.116;2023-01-05T00:51:41;6.00;;;1.50;;
75059;SDS011;63640;59.264;18.116;2023-01-05T00:54:07;5.25;;;1.90;;
75059;SDS011;63640;59.264;18.116;2023-01-05T00:56:33;6.05;;;1.95;;
75059;SDS011;63640;59.264;18.116;2023-01-05T00:58:59;4.72;;;1.73;;
75059;SDS011;63640;59.264;18.116;2023-01-05T01:01:24;4.65;;;2.10;;
75059;SDS011;63640;59.264;18.116;2023-01-05T01:03:50;9.77;;;1.70;;
75059;SDS011;63640;59.264;18.116;2023-01-05T01:06:15;5.07;;;1.42;;
75059;SDS011;63640;59.264;18.116;2023-01-05T01:08:41;5.90;;;1.27;;
75059;SDS011;63640;59.264;18.116;2023-01-05T01:11:07;5.90;;;1.92;;
75059;SDS011;63640;59.264;18.116;2023-01-05T01:13:34;6.95;;;1.83;;
75059;SDS011;63640;59.264;18.116;2023-01-05T01:16:06;11.07;;;1.98;;
75059;SDS011;63640;59.264;18.116;2023-01-05T01:18:33;5.70;;;1.60;;
75059;SDS011;63640;59.264;18.116;2023-01-05T01:20:59;6.65;;;1.83;;
75059;SDS011;63640;59.264;18.116;2023-01-05T01:23:24;7.55;;;2.13;;
75059;SDS011;63640;59.264;18.116;2023-01-05T01:25:50;13.55;;;2.13;;
75059;SDS011;63640;59.264;18.116;2023-01-05T01:28:15;8.00;;;2.13;;
75059;SDS011;63640;59.264;18.116;2023-01-05T01:30:41;5.97;;;1.75;;
75059;SDS011;63640;59.264;18.116;2023-01-05T01:33:06;6.82;;;1.83;;
75059;SDS011;63640;59.264;18.116;2023-01-05T01:35:32;4.75;;;1.70;;
75059;SDS011;63640;59.264;18.116;2023-01-05T01:37:57;5.55;;;1.80;;
75059;SDS011;63640;59.264;18.116;2023-01-05T01:40:23;5.82;;;1.80;;
75059;SDS011;63640;59.264;18.116;2023-01-05T01:42:48;7.00;;;1.92;;
75059;SDS011;63640;59.264;18.116;2023-01-05T01:45:18;5.15;;;1.90;;
75059;SDS011;63640;59.264;18.116;2023-01-05T01:47:50;5.47;;;1.70;;
75059;SDS011;63640;59.264;18.116;2023-01-05T01:50:30;7.07;;;1.77;;
75059;SDS011;63640;59.264;18.116;2023-01-05T01:52:59;5.35;;;1.65;;
75059;SDS011;63640;59.264;18.116;2023-01-05T01:55:28;4.63;;;1.55;;
75059;SDS011;63640;59.264;18.116;2023-01-05T01:57:54;8.50;;;2.03;;
75059;SDS011;63640;59.264;18.116;2023-01-05T02:00:20;7.57;;;2.15;;
75059;SDS011;63640;59.264;18.116;2023-01-05T02:02:49;6.57;;;1.75;;
75059;SDS011;63640;59.264;18.116;2023-01-05T02:07:44;5.57;;;2.08;;
75059;SDS011;63640;59.264;18.116;2023-01-05T02:10:11;6.47;;;1.65;;
75059;SDS011;63640;59.264;18.116;2023-01-05T02:12:50;6.45;;;1.67;;
75059;SDS011;63640;59.264;18.116;2023-01-05T02:15:34;5.22;;;1.42;;
75059;SDS011;63640;59.264;18.116;2023-01-05T02:20:47;5.70;;;1.73;;
75059;SDS011;63640;59.264;18.116;2023-01-05T02:31:52;7.15;;;1.55;;
75059;SDS011;63640;59.264;18.116;2023-01-05T02:34:22;5.40;;;1.63;;
75059;SDS011;63640;59.264;18.116;2023-01-05T02:40:08;8.25;;;1.63;;
75059;SDS011;63640;59.264;18.116;2023-01-05T02:42:55;7.13;;;1.70;;
75059;SDS011;63640;59.264;18.116;2023-01-05T02:45:21;5.38;;;1.92;;
75059;SDS011;63640;59.264;18.116;2023-01-05T02:47:47;5.88;;;1.33;;
75059;SDS011;63640;59.264;18.116;2023-01-05T02:52:51;5.05;;;1.58;;
75059;SDS011;63640;59.264;18.116;2023-01-05T02:55:23;4.28;;;1.55;;
75059;SDS011;63640;59.264;18.116;2023-01-05T02:57:54;6.40;;;1.70;;
75059;SDS011;63640;59.264;18.116;2023-01-05T03:02:51;4.40;;;1.60;;
75059;SDS011;63640;59.264;18.116;2023-01-05T03:05:22;5.18;;;1.83;;
75059;SDS011;63640;59.264;18.116;2023-01-05T03:07:50;5.97;;;1.63;;
75059;SDS011;63640;59.264;18.116;2023-01-05T03:10:17;5.40;;;1.55;;
75059;SDS011;63640;59.264;18.116;2023-01-05T03:13:03;5.72;;;2.03;;
75059;SDS011;63640;59.264;18.116;2023-01-05T03:15:49;5.30;;;1.30;;
75059;SDS011;63640;59.264;18.116;2023-01-05T03:18:16;5.80;;;1.42;;
75059;SDS011;63640;59.264;18.116;2023-01-05T03:20:45;5.03;;;1.73;;
75059;SDS011;63640;59.264;18.116;2023-01-05T03:23:13;5.13;;;1.73;;
75059;SDS011;63640;59.264;18.116;2023-01-05T03:25:59;5.63;;;1.73;;
75059;SDS011;63640;59.264;18.116;2023-01-05T03:28:46;6.18;;;1.50;;
75059;SDS011;63640;59.264;18.116;2023-01-05T03:31:34;5.38;;;1.42;;
75059;SDS011;63640;59.264;18.116;2023-01-05T03:37:21;5.90;;;1.73;;
75059;SDS011;63640;59.264;18.116;2023-01-05T03:39:48;7.78;;;1.55;;
75059;SDS011;63640;59.264;18.116;2023-01-05T03:42:14;6.38;;;1.65;;
75059;SDS011;63640;59.264;18.116;2023-01-05T03:44:42;5.70;;;1.70;;
75059;SDS011;63640;59.264;18.116;2023-01-05T03:47:09;6.40;;;1.52;;
75059;SDS011;63640;59.264;18.116;2023-01-05T03:49:34;7.55;;;1.60;;
75059;SDS011;63640;59.264;18.116;2023-01-05T03:52:01;5.60;;;1.42;;
75059;SDS011;63640;59.264;18.116;2023-01-05T03:54:26;6.72;;;2.20;;
75059;SDS011;63640;59.264;18.116;2023-01-05T03:56:52;4.72;;;2.33;;
75059;SDS011;63640;59.264;18.116;2023-01-05T03:59:17;5.75;;;1.88;;
75059;SDS011;63640;59.264;18.116;2023-01-05T04:01:43;4.57;;;1.83;;
75059;SDS011;63640;59.264;18.116;2023-01-05T04:04:09;7.40;;;2.15;;
75059;SDS011;63640;59.264;18.116;2023-01-05T04:06:34;6.20;;;1.80;;
75059;SDS011;63640;59.264;18.116;2023-01-05T04:09:00;5.50;;;2.45;;
75059;SDS011;63640;59.264;18.116;2023-01-05T04:11:25;5.32;;;2.42;;
75059;SDS011;63640;59.264;18.116;2023-01-05T04:13:51;6.95;;;2.28;;
75059;SDS011;63640;59.264;18.116;2023-01-05T04:16:16;4.28;;;1.80;;
75059;SDS011;63640;59.264;18.116;2023-01-05T04:18:42;6.65;;;2.67;;
75059;SDS011;63640;59.264;18.116;2023-01-05T04:21:08;6.32;;;2.20;;
75059;SDS011;63640;59.264;18.116;2023-01-05T04:23:33;6.22;;;2.85;;
75059;SDS011;63640;59.264;18.116;2023-01-05T04:26:00;6.88;;;2.70;;
75059;SDS011;63640;59.264;18.116;2023-01-05T04:28:26;7.07;;;3.20;;
75059;SDS011;63640;59.264;18.116;2023-01-05T04:30:52;9.18;;;2.78;;
75059;SDS011;63640;59.264;18.116;2023-01-05T04:33:18;11.10;;;2.55;;
75059;SDS011;63640;59.264;18.116;2023-01-05T04:35:45;7.22;;;2.40;;
75059;SDS011;63640;59.264;18.116;2023-01-05T04:38:10;7.38;;;2.28;;
75059;SDS011;63640;59.264;18.116;2023-01-05T04:40:36;4.75;;;2.08;;
75059;SDS011;63640;59.264;18.116;2023-01-05T04:43:02;5.85;;;2.33;;
75059;SDS011;63640;59.264;18.116;2023-01-05T04:45:27;6.32;;;2.25;;
75059;SDS011;63640;59.264;18.116;2023-01-05T04:47:53;8.68;;;3.47;;
75059;SDS011;63640;59.264;18.116;2023-01-05T04:50:18;5.25;;;2.20;;
75059;SDS011;63640;59.264;18.116;2023-01-05T04:52:44;5.45;;;2.10;;
75059;SDS011;63640;59.264;18.116;2023-01-05T04:55:10;7.13;;;2.20;;
75059;SDS011;63640;59.264;18.116;2023-01-05T04:57:36;4.60;;;2.00;;
75059;SDS011;63640;59.264;18.116;2023-01-05T05:00:02;5.93;;;2.13;;
75059;SDS011;63640;59.264;18.116;2023-01-05T05:02:28;6.70;;;2.00;;
75059;SDS011;63640;59.264;18.116;2023-01-05T05:04:54;7.25;;;2.10;;
75059;SDS011;63640;59.264;18.116;2023-01-05T05:07:19;6.35;;;2.58;;
75059;SDS011;63640;59.264;18.116;2023-01-05T05:09:45;7.03;;;2.13;;
75059;SDS011;63640;59.264;18.116;2023-01-05T05:12:10;7.35;;;2.03;;
75059;SDS011;63640;59.264;18.116;2023-01-05T05:14:37;5.18;;;1.80;;
75059;SDS011;63640;59.264;18.116;2023-01-05T05:17:03;6.60;;;1.58;;
75059;SDS011;63640;59.264;18.116;2023-01-05T05:19:29;8.30;;;2.33;;
75059;SDS011;63640;59.264;18.116;2023-01-05T05:21:54;9.35;;;1.90;;
75059;SDS011;63640;59.264;18.116;2023-01-05T05:24:20;9.35;;;2.45;;
75059;SDS011;63640;59.264;18.116;2023-01-05T05:26:45;6.90;;;2.22;;
75059;SDS011;63640;59.264;18.116;2023-01-05T05:29:11;9.07;;;2.13;;
75059;SDS011;63640;59.264;18.116;2023-01-05T05:31:36;4.63;;;1.83;;
75059;SDS011;63640;59.264;18.116;2023-01-05T05:34:02;10.48;;;2.55;;
75059;SDS011;63640;59.264;18.116;2023-01-05T05:36:28;6.00;;;1.80;;
75059;SDS011;63640;59.264;18.116;2023-01-05T05:38:53;9.50;;;2.20;;
75059;SDS011;63640;59.264;18.116;2023-01-05T05:41:20;6.57;;;1.60;;
75059;SDS011;63640;59.264;18.116;2023-01-05T05:43:46;8.10;;;1.77;;
75059;SDS011;63640;59.264;18.116;2023-01-05T05:46:11;9.10;;;2.00;;
75059;SDS011;63640;59.264;18.116;2023-01-05T05:48:37;7.55;;;1.88;;
75059;SDS011;63640;59.264;18.116;2023-01-05T05:51:03;7.95;;;2.30;;
75059;SDS011;63640;59.264;18.116;2023-01-05T05:53:28;8.50;;;2.40;;
75059;SDS011;63640;59.264;18.116;2023-01-05T05:55:54;6.38;;;1.73;;
75059;SDS011;63640;59.264;18.116;2023-01-05T05:58:20;6.78;;;2.22;;
75059;SDS011;63640;59.264;18.116;2023-01-05T06:00:45;6.47;;;2.00;;
75059;SDS011;63640;59.264;18.116;2023-01-05T06:03:11;4.57;;;1.75;;
75059;SDS011;63640;59.264;18.116;2023-01-05T06:05:37;6.65;;;2.95;;
75059;SDS011;63640;59.264;18.116;2023-01-05T06:08:02;7.90;;;2.58;;
75059;SDS011;63640;59.264;18.116;2023-01-05T06:10:28;6.25;;;2.17;;
75059;SDS011;63640;59.264;18.116;2023-01-05T06:12:54;7.13;;;1.95;;
75059;SDS011;63640;59.264;18.116;2023-01-05T06:15:20;8.82;;;1.92;;
75059;SDS011;63640;59.264;18.116;2023-01-05T06:17:46;7.20;;;2.17;;
75059;SDS011;63640;59.264;18.116;2023-01-05T06:20:12;11.13;;;3.30;;
75059;SDS011;63640;59.264;18.116;2023-01-05T06:22:39;9.48;;;2.60;;
75059;SDS011;63640;59.264;18.116;2023-01-05T06:25:05;10.73;;;3.17;;
75059;SDS011;63640;59.264;18.116;2023-01-05T06:27:31;8.88;;;2.92;;
75059;SDS011;63640;59.264;18.116;2023-01-05T06:29:56;7.05;;;3.50;;
75059;SDS011;63640;59.264;18.116;2023-01-05T06:32:22;9.68;;;3.40;;
75059;SDS011;63640;59.264;18.116;2023-01-05T06:34:48;10.23;;;3.55;;
75059;SDS011;63640;59.264;18.116;2023-01-05T06:37:14;10.05;;;3.38;;
75059;SDS011;63640;59.264;18.116;2023-01-05T06:39:39;10.20;;;3.38;;
75059;SDS011;63640;59.264;18.116;2023-01-05T06:42:05;10.98;;;3.13;;
75059;SDS011;63640;59.264;18.116;2023-01-05T06:44:30;10.75;;;3.72;;
75059;SDS011;63640;59.264;18.116;2023-01-05T06:46:56;10.07;;;3.08;;
75059;SDS011;63640;59.264;18.116;2023-01-05T06:49:21;12.38;;;3.88;;
75059;SDS011;63640;59.264;18.116;2023-01-05T06:51:47;12.38;;;3.25;;
75059;SDS011;63640;59.264;18.116;2023-01-05T06:54:13;11.23;;;4.10;;
75059;SDS011;63640;59.264;18.116;2023-01-05T06:56:38;7.97;;;3.50;;
75059;SDS011;63640;59.264;18.116;2023-01-05T06:59:04;11.23;;;3.63;;
75059;SDS011;63640;59.264;18.116;2023-01-05T07:01:29;8.38;;;3.15;;
75059;SDS011;63640;59.264;18.116;2023-01-05T07:03:55;7.32;;;3.13;;
75059;SDS011;63640;59.264;18.116;2023-01-05T07:06:20;11.75;;;3.97;;
75059;SDS011;63640;59.264;18.116;2023-01-05T07:08:46;7.13;;;3.13;;
75059;SDS011;63640;59.264;18.116;2023-01-05T07:11:11;9.45;;;3.42;;
75059;SDS011;63640;59.264;18.116;2023-01-05T07:13:38;12.05;;;3.20;;
75059;SDS011;63640;59.264;18.116;2023-01-05T07:16:04;8.57;;;3.40;;
75059;SDS011;63640;59.264;18.116;2023-01-05T07:18:29;8.85;;;3.47;;
75059;SDS011;63640;59.264;18.116;2023-01-05T07:20:55;6.38;;;3.20;;
75059;SDS011;63640;59.264;18.116;2023-01-05T07:23:23;9.98;;;3.17;;
75059;SDS011;63640;59.264;18.116;2023-01-05T07:25:48;13.20;;;3.35;;
75059;SDS011;63640;59.264;18.116;2023-01-05T07:28:14;9.15;;;3.38;;
75059;SDS011;63640;59.264;18.116;2023-01-05T07:30:39;7.85;;;2.80;;
75059;SDS011;63640;59.264;18.116;2023-01-05T07:33:05;13.75;;;3.70;;
75059;SDS011;63640;59.264;18.116;2023-01-05T07:35:31;9.40;;;3.50;;
75059;SDS011;63640;59.264;18.116;2023-01-05T07:37:56;10.93;;;3.60;;
75059;SDS011;63640;59.264;18.116;2023-01-05T07:40:22;10.68;;;3.40;;
75059;SDS011;63640;59.264;18.116;2023-01-05T07:42:51;13.40;;;3.88;;
75059;SDS011;63640;59.264;18.116;2023-01-05T07:45:17;11.13;;;3.60;;
75059;SDS011;63640;59.264;18.116;2023-01-05T07:47:43;10.32;;;3.47;;
75059;SDS011;63640;59.264;18.116;2023-01-05T07:50:09;6.65;;;2.78;;
75059;SDS011;63640;59.264;18.116;2023-01-05T07:52:34;9.15;;;3.40;;
75059;SDS011;63640;59.264;18.116;2023-01-05T07:55:00;7.28;;;2.97;;
75059;SDS011;63640;59.264;18.116;2023-01-05T07:57:25;7.78;;;3.30;;
75059;SDS011;63640;59.264;18.116;2023-01-05T07:59:51;7.18;;;3.50;;
75059;SDS011;63640;59.264;18.116;2023-01-05T08:02:16;9.20;;;3.67;;
75059;SDS011;63640;59.264;18.116;2023-01-05T08:04:42;11.07;;;3.90;;
75059;SDS011;63640;59.264;18.116;2023-01-05T08:07:07;8.65;;;3.30;;
75059;SDS011;63640;59.264;18.116;2023-01-05T08:09:35;10.00;;;3.30;;
75059;SDS011;63640;59.264;18.116;2023-01-05T08:12:20;8.38;;;3.08;;
75059;SDS011;63640;59.264;18.116;2023-01-05T08:14:45;10.93;;;3.83;;
75059;SDS011;63640;59.264;18.116;2023-01-05T08:17:11;11.35;;;4.00;;
75059;SDS011;63640;59.264;18.116;2023-01-05T08:19:36;10.25;;;3.15;;
75059;SDS011;63640;59.264;18.116;2023-01-05T08:22:02;11.00;;;3.60;;
75059;SDS011;63640;59.264;18.116;2023-01-05T08:24:27;14.20;;;3.53;;
75059;SDS011;63640;59.264;18.116;2023-01-05T08:26:53;8.48;;;4.05;;
75059;SDS011;63640;59.264;18.116;2023-01-05T08:29:18;7.50;;;3.33;;
75059;SDS011;63640;59.264;18.116;2023-01-05T08:31:44;7.03;;;3.00;;
75059;SDS011;63640;59.264;18.116;2023-01-05T08:34:09;10.05;;;3.53;;
75059;SDS011;63640;59.264;18.116;2023-01-05T08:36:35;10.32;;;3.75;;
75059;SDS011;63640;59.264;18.116;2023-01-05T08:39:00;10.32;;;3.63;;
75059;SDS011;63640;59.264;18.116;2023-01-05T08:41:27;11.02;;;4.82;;
75059;SDS011;63640;59.264;18.116;2023-01-05T08:43:56;12.20;;;3.95;;
75059;SDS011;63640;59.264;18.116;2023-01-05T08:46:24;7.80;;;3.13;;
75059;SDS011;63640;59.264;18.116;2023-01-05T08:48:51;10.25;;;3.30;;
75059;SDS011;63640;59.264;18.116;2023-01-05T08:51:18;9.73;;;3.22;;
75059;SDS011;63640;59.264;18.116;2023-01-05T08:53:44;6.10;;;2.80;;
75059;SDS011;63640;59.264;18.116;2023-01-05T08:56:10;11.13;;;3.00;;
75059;SDS011;63640;59.264;18.116;2023-01-05T08:58:36;9.25;;;3.58;;
75059;SDS011;63640;59.264;18.116;2023-01-05T09:01:09;6.10;;;2.40;;
75059;SDS011;63640;59.264;18.116;2023-01-05T09:03:36;9.93;;;3.47;;
75059;SDS011;63640;59.264;18.116;2023-01-05T09:06:02;7.75;;;2.53;;
75059;SDS011;63640;59.264;18.116;2023-01-05T09:08:31;8.73;;;2.45;;
75059;SDS011;63640;59.264;18.116;2023-01-05T09:11:31;9.15;;;2.67;;
75059;SDS011;63640;59.264;18.116;2023-01-05T09:13:51;9.55;;;3.15;;
75059;SDS011;63640;59.264;18.116;2023-01-05T09:16:24;6.93;;;2.65;;
75059;SDS011;63640;59.264;18.116;2023-01-05T09:18:50;8.88;;;2.88;;
75059;SDS011;63640;59.264;18.116;2023-01-05T09:21:16;9.77;;;3.58;;
75059;SDS011;63640;59.264;18.116;2023-01-05T09:23:43;6.88;;;2.72;;
75059;SDS011;63640;59.264;18.116;2023-01-05T09:26:12;12.75;;;3.47;;
75059;SDS011;63640;59.264;18.116;2023-01-05T09:28:40;9.30;;;3.30;;
75059;SDS011;63640;59.264;18.116;2023-01-05T09:31:10;8.88;;;3.13;;
75059;SDS011;63640;59.264;18.116;2023-01-05T09:33:37;9.07;;;3.13;;
75059;SDS011;63640;59.264;18.116;2023-01-05T09:36:03;11.30;;;3.30;;
75059;SDS011;63640;59.264;18.116;2023-01-05T09:38:29;10.32;;;3.25;;
75059;SDS011;63640;59.264;18.116;2023-01-05T09:40:55;11.98;;;3.58;;
75059;SDS011;63640;59.264;18.116;2023-01-05T09:43:26;8.95;;;3.25;;
75059;SDS011;63640;59.264;18.116;2023-01-05T09:45:53;8.18;;;3.53;;
75059;SDS011;63640;59.264;18.116;2023-01-05T09:48:20;10.55;;;3.55;;
75059;SDS011;63640;59.264;18.116;2023-01-05T09:50:46;8.40;;;3.22;;
75059;SDS011;63640;59.264;18.116;2023-01-05T09:53:12;9.52;;;3.13;;
75059;SDS011;63640;59.264;18.116;2023-01-05T09:55:40;12.23;;;3.58;;
75059;SDS011;63640;59.264;18.116;2023-01-05T09:58:11;7.65;;;3.17;;
75059;SDS011;63640;59.264;18.116;2023-01-05T10:00:44;9.85;;;4.20;;
75059;SDS011;63640;59.264;18.116;2023-01-05T10:03:21;9.77;;;3.83;;
75059;SDS011;63640;59.264;18.116;2023-01-05T10:05:48;8.02;;;3.13;;
75059;SDS011;63640;59.264;18.116;2023-01-05T10:08:23;9.63;;;3.17;;
75059;SDS011;63640;59.264;18.116;2023-01-05T10:10:57;9.02;;;3.22;;
75059;SDS011;63640;59.264;18.116;2023-01-05T10:13:56;9.02;;;3.75;;
75059;SDS011;63640;59.264;18.116;2023-01-05T10:16:25;8.25;;;3.13;;
75059;SDS011;63640;59.264;18.116;2023-01-05T10:18:52;5.88;;;2.50;;
75059;SDS011;63640;59.264;18.116;2023-01-05T10:26:44;8.52;;;3.13;;
75059;SDS011;63640;59.264;18.116;2023-01-05T10:29:26;10.05;;;3.78;;
75059;SDS011;63640;59.264;18.116;2023-01-05T10:34:57;10.00;;;3.10;;
75059;SDS011;63640;59.264;18.116;2023-01-05T10:43:15;11.00;;;3.55;;
75059;SDS011;63640;59.264;18.116;2023-01-05T10:45:48;8.68;;;3.72;;
75059;SDS011;63640;59.264;18.116;2023-01-05T10:48:14;9.20;;;2.55;;
75059;SDS011;63640;59.264;18.116;2023-01-05T10:50:43;13.73;;;3.13;;
75059;SDS011;63640;59.264;18.116;2023-01-05T10:53:11;11.15;;;3.15;;
75059;SDS011;63640;59.264;18.116;2023-01-05T10:56:12;10.57;;;3.47;;
75059;SDS011;63640;59.264;18.116;2023-01-05T10:58:31;14.48;;;3.75;;
75059;SDS011;63640;59.264;18.116;2023-01-05T11:01:18;11.05;;;3.50;;
75059;SDS011;63640;59.264;18.116;2023-01-05T11:03:51;10.68;;;3.47;;
75059;SDS011;63640;59.264;18.116;2023-01-05T11:06:20;9.60;;;4.05;;
75059;SDS011;63640;59.264;18.116;2023-01-05T11:08:48;8.95;;;3.35;;
75059;SDS011;63640;59.264;18.116;2023-01-05T11:11:23;8.40;;;3.45;;
75059;SDS011;63640;59.264;18.116;2023-01-05T11:13:54;17.08;;;4.88;;
75059;SDS011;63640;59.264;18.116;2023-01-05T11:16:21;9.70;;;3.92;;
75059;SDS011;63640;59.264;18.116;2023-01-05T11:18:51;12.98;;;4.25;;
75059;SDS011;63640;59.264;18.116;2023-01-05T11:23:48;14.70;;;3.47;;
75059;SDS011;63640;59.264;18.116;2023-01-05T11:26:22;10.15;;;3.83;;
75059;SDS011;63640;59.264;18.116;2023-01-05T11:31:21;14.93;;;4.85;;
75059;SDS011;63640;59.264;18.116;2023-01-05T11:33:47;10.00;;;3.28;;
75059;SDS011;63640;59.264;18.116;2023-01-05T11:36:20;12.00;;;2.85;;
75059;SDS011;63640;59.264;18.116;2023-01-05T11:38:49;12.45;;;3.72;;
75059;SDS011;63640;59.264;18.116;2023-01-05T11:41:16;10.88;;;3.67;;
75059;SDS011;63640;59.264;18.116;2023-01-05T11:43:42;11.57;;;3.22;;
75059;SDS011;63640;59.264;18.116;2023-01-05T11:46:10;13.60;;;3.50;;
75059;SDS011;63640;59.264;18.116;2023-01-05T11:48:39;12.55;;;3.50;;
75059;SDS011;63640;59.264;18.116;2023-01-05T11:51:31;9.52;;;3.60;;
75059;SDS011;63640;59.264;18.116;2023-01-05T11:53:58;14.43;;;4.07;;
75059;SDS011;63640;59.264;18.116;2023-01-05T11:56:24;13.50;;;3.78;;
75059;SDS011;63640;59.264;18.116;2023-01-05T11:58:51;10.60;;;3.80;;
75059;SDS011;63640;59.264;18.116;2023-01-05T12:04:23;10.55;;;3.60;;
75059;SDS011;63640;59.264;18.116;2023-01-05T12:07:12;12.40;;;3.90;;
75059;SDS011;63640;59.264;18.116;2023-01-05T12:10:03;12.25;;;3.67;;
75059;SDS011;63640;59.264;18.116;2023-01-05T12:20:32;9.75;;;3.55;;
75059;SDS011;63640;59.264;18.116;2023-01-05T12:25:47;7.38;;;2.63;;
75059;SDS011;63640;59.264;18.116;2023-01-05T12:31:39;10.45;;;3.50;;
75059;SDS011;63640;59.264;18.116;2023-01-05T12:39:39;10.35;;;3.45;;
75059;SDS011;63640;59.264;18.116;2023-01-05T12:42:40;9.38;;;3.08;;
75059;SDS011;63640;59.264;18.116;2023-01-05T12:50:36;13.77;;;4.07;;
75059;SDS011;63640;59.264;18.116;2023-01-05T12:53:16;15.75;;;4.25;;
75059;SDS011;63640;59.264;18.116;2023-01-05T12:55:52;11.25;;;4.10;;
75059;SDS011;63640;59.264;18.116;2023-01-05T13:00:54;13.25;;;4.20;;
75059;SDS011;63640;59.264;18.116;2023-01-05T13:03:26;12.20;;;3.28;;
75059;SDS011;63640;59.264;18.116;2023-01-05T13:06:03;11.32;;;3.92;;
75059;SDS011;63640;59.264;18.116;2023-01-05T13:09:21;15.80;;;4.35;;
75059;SDS011;63640;59.264;18.116;2023-01-05T13:14:17;11.43;;;4.80;;
75059;SDS011;63640;59.264;18.116;2023-01-05T13:16:46;9.00;;;3.75;;
75059;SDS011;63640;59.264;18.116;2023-01-05T13:19:21;10.63;;;3.78;;
75059;SDS011;63640;59.264;18.116;2023-01-05T13:21:49;9.23;;;3.63;;
75059;SDS011;63640;59.264;18.116;2023-01-05T13:26:54;10.10;;;3.85;;
75059;SDS011;63640;59.264;18.116;2023-01-05T13:29:25;8.85;;;3.53;;
75059;SDS011;63640;59.264;18.116;2023-01-05T13:34:43;19.10;;;4.47;;
75059;SDS011;63640;59.264;18.116;2023-01-05T13:55:22;8.43;;;3.30;;
75059;SDS011;63640;59.264;18.116;2023-01-05T13:57:49;11.73;;;3.67;;
75059;SDS011;63640;59.264;18.116;2023-01-05T14:03:05;12.00;;;3.60;;
75059;SDS011;63640;59.264;18.116;2023-01-05T14:05:38;15.48;;;3.97;;
75059;SDS011;63640;59.264;18.116;2023-01-05T14:08:28;8.55;;;3.10;;
75059;SDS011;63640;59.264;18.116;2023-01-05T14:24:30;9.20;;;3.17;;
75059;SDS011;63640;59.264;18.116;2023-01-05T14:27:00;10.20;;;3.20;;
75059;SDS011;63640;59.264;18.116;2023-01-05T14:30:00;10.85;;;3.03;;
75059;SDS011;63640;59.264;18.116;2023-01-05T14:32:21;13.63;;;3.42;;
75059;SDS011;63640;59.264;18.116;2023-01-05T14:46:09;12.10;;;3.53;;
75059;SDS011;63640;59.264;18.116;2023-01-05T14:49:23;12.82;;;3.05;;
75059;SDS011;63640;59.264;18.116;2023-01-05T14:51:35;13.90;;;3.55;;
75059;SDS011;63640;59.264;18.116;2023-01-05T14:54:03;14.10;;;3.50;;
75059;SDS011;63640;59.264;18.116;2023-01-05T14:56:30;9.82;;;3.45;;
75059;SDS011;63640;59.264;18.116;2023-01-05T14:59:00;12.73;;;3.60;;
75059;SDS011;63640;59.264;18.116;2023-01-05T15:01:37;13.48;;;3.47;;
75059;SDS011;63640;59.264;18.116;2023-01-05T15:04:12;11.88;;;3.33;;
75059;SDS011;63640;59.264;18.116;2023-01-05T15:18:02;10.30;;;3.28;;
75059;SDS011;63640;59.264;18.116;2023-01-05T15:23:17;12.43;;;2.92;;
75059;SDS011;63640;59.264;18.116;2023-01-05T15:31:38;8.63;;;3.50;;
75059;SDS011;63640;59.264;18.116;2023-01-05T15:35:08;10.35;;;3.28;;
75059;SDS011;63640;59.264;18.116;2023-01-05T15:40:00;15.23;;;2.92;;
75059;SDS011;63640;59.264;18.116;2023-01-05T15:44:56;10.80;;;4.10;;
75059;SDS011;63640;59.264;18.116;2023-01-05T15:47:22;13.73;;;3.92;;
75059;SDS011;63640;59.264;18.116;2023-01-05T15:49:50;14.77;;;4.22;;
75059;SDS011;63640;59.264;18.116;2023-01-05T15:52:32;10.35;;;3.15;;
75059;SDS011;63640;59.264;18.116;2023-01-05T15:57:28;12.45;;;3.75;;
75059;SDS011;63640;59.264;18.116;2023-01-05T15:59:54;10.93;;;3.72;;
75059;SDS011;63640;59.264;18.116;2023-01-05T16:07:45;9.80;;;3.33;;
75059;SDS011;63640;59.264;18.116;2023-01-05T16:10:18;10.95;;;3.10;;
75059;SDS011;63640;59.264;18.116;2023-01-05T16:12:46;11.40;;;3.60;;
75059;SDS011;63640;59.264;18.116;2023-01-05T16:15:16;9.93;;;3.22;;
75059;SDS011;63640;59.264;18.116;2023-01-05T16:17:45;10.63;;;3.92;;
75059;SDS011;63640;59.264;18.116;2023-01-05T16:20:19;13.38;;;3.30;;
75059;SDS011;63640;59.264;18.116;2023-01-05T16:22:49;13.73;;;3.65;;
75059;SDS011;63640;59.264;18.116;2023-01-05T16:25:20;12.93;;;3.58;;
75059;SDS011;63640;59.264;18.116;2023-01-05T16:27:55;12.43;;;3.92;;
75059;SDS011;63640;59.264;18.116;2023-01-05T16:33:04;11.40;;;3.13;;
75059;SDS011;63640;59.264;18.116;2023-01-05T16:40:37;11.13;;;3.92;;
75059;SDS011;63640;59.264;18.116;2023-01-05T16:45:40;16.92;;;5.60;;
75059;SDS011;63640;59.264;18.116;2023-01-05T16:48:13;12.63;;;3.85;;
75059;SDS011;63640;59.264;18.116;2023-01-05T16:51:03;13.55;;;4.05;;
75059;SDS011;63640;59.264;18.116;2023-01-05T16:53:30;12.23;;;4.00;;
75059;SDS011;63640;59.264;18.116;2023-01-05T16:55:58;11.35;;;3.58;;
75059;SDS011;63640;59.264;18.116;2023-01-05T17:03:34;9.43;;;3.15;;
75059;SDS011;63640;59.264;18.116;2023-01-05T17:06:00;11.30;;;3.65;;
75059;SDS011;63640;59.264;18.116;2023-01-05T17:08:26;9.75;;;2.85;;
75059;SDS011;63640;59.264;18.116;2023-01-05T17:10:55;7.75;;;3.40;;
75059;SDS011;63640;59.264;18.116;2023-01-05T17:13:23;11.32;;;2.83;;
75059;SDS011;63640;59.264;18.116;2023-01-05T17:15:52;8.63;;;3.00;;
75059;SDS011;63640;59.264;18.116;2023-01-05T17:18:27;9.88;;;2.72;;
75059;SDS011;63640;59.264;18.116;2023-01-05T17:20:54;8.50;;;3.00;;
75059;SDS011;63640;59.264;18.116;2023-01-05T17:25:52;13.35;;;3.20;;
75059;SDS011;63640;59.264;18.116;2023-01-05T17:28:18;13.10;;;3.80;;
75059;SDS011;63640;59.264;18.116;2023-01-05T17:30:46;10.73;;;4.15;;
75059;SDS011;63640;59.264;18.116;2023-01-05T17:33:14;15.65;;;5.18;;
75059;SDS011;63640;59.264;18.116;2023-01-05T17:35:39;12.25;;;4.55;;
75059;SDS011;63640;59.264;18.116;2023-01-05T17:38:05;12.35;;;4.65;;
75059;SDS011;63640;59.264;18.116;2023-01-05T17:40:31;13.50;;;5.32;;
75059;SDS011;63640;59.264;18.116;2023-01-05T17:42:56;13.27;;;4.40;;
75059;SDS011;63640;59.264;18.116;2023-01-05T17:45:22;7.60;;;2.67;;